sensor_id;sensor_type;location;lat;lon;timestamp;temperature;humidity
14585;DHT22;7379;51.506;11.876;2023-03-05T00:00:45;4.30;67.60
14585;DHT22;7379;51.506;11.876;2023-03-05T00:03:12;4.30;67.50
14585;DHT22;7379;51.506;11.876;2023-03-05T00:05:39;4.30;67.50
14585;DHT22;7379;51.506;11.876;2023-03-05T00:08:06;4.30;67.40
14585;DHT22;7379;51.506;11.876;2023-03-05T00:10:33;4.30;67.40
14585;DHT22;7379;51.506;11.876;2023-03-05T00:13:01;4.30;67.40
14585;DHT22;7379;51.506;11.876;2023-03-05T00:15:27;4.30;67.40
14585;DHT22;7379;51.506;11.876;2023-03-05T00:17:54;4.30;68.00
14585;DHT22;7379;51.506;11.876;2023-03-05T00:20:21;4.30;67.20
14585;DHT22;7379;51.506;11.876;2023-03-05T00:22:48;4.30;67.00
14585;DHT22;7379;51.506;11.876;2023-03-05T00:25:15;4.30;66.90
14585;DHT22;7379;51.506;11.876;2023-03-05T00:27:42;4.30;66.90
14585;DHT22;7379;51.506;11.876;2023-03-05T00:30:11;4.30;67.00
14585;DHT22;7379;51.506;11.876;2023-03-05T00:32:38;4.30;67.10
14585;DHT22;7379;51.506;11.876;2023-03-05T00:35:05;4.30;67.00
14585;DHT22;7379;51.506;11.876;2023-03-05T00:37:32;4.20;67.10
14585;DHT22;7379;51.506;11.876;2023-03-05T00:39:59;4.20;67.10
14585;DHT22;7379;51.506;11.876;2023-03-05T00:42:26;4.20;67.20
14585;DHT22;7379;51.506;11.876;2023-03-05T00:44:53;4.20;67.30
14585;DHT22;7379;51.506;11.876;2023-03-05T00:47:21;4.20;67.40
14585;DHT22;7379;51.506;11.876;2023-03-05T00:49:48;4.20;68.20
14585;DHT22;7379;51.506;11.876;2023-03-05T00:52:15;4.20;67.50
14585;DHT22;7379;51.506;11.876;2023-03-05T00:54:41;4.20;67.60
14585;DHT22;7379;51.506;11.876;2023-03-05T00:57:08;4.20;67.60
14585;DHT22;7379;51.506;11.876;2023-03-05T00:59:35;4.20;67.60
14585;DHT22;7379;51.506;11.876;2023-03-05T01:02:02;4.20;67.60
14585;DHT22;7379;51.506;11.876;2023-03-05T01:04:30;4.20;67.70
14585;DHT22;7379;51.506;11.876;2023-03-05T01:06:57;4.20;67.70
14585;DHT22;7379;51.506;11.876;2023-03-05T01:09:24;4.20;67.70
14585;DHT22;7379;51.506;11.876;2023-03-05T01:11:51;4.20;67.80
14585;DHT22;7379;51.506;11.876;2023-03-05T01:14:18;4.20;67.80
14585;DHT22;7379;51.506;11.876;2023-03-05T01:16:46;4.20;67.90
14585;DHT22;7379;51.506;11.876;2023-03-05T01:19:14;4.20;67.90
14585;DHT22;7379;51.506;11.876;2023-03-05T01:21:42;4.20;68.00
14585;DHT22;7379;51.506;11.876;2023-03-05T01:24:09;4.20;68.00
14585;DHT22;7379;51.506;11.876;2023-03-05T01:26:36;4.20;68.00
14585;DHT22;7379;51.506;11.876;2023-03-05T01:29:03;4.20;68.20
14585;DHT22;7379;51.506;11.876;2023-03-05T01:31:30;4.20;68.20
14585;DHT22;7379;51.506;11.876;2023-03-05T01:33:56;4.20;68.20
14585;DHT22;7379;51.506;11.876;2023-03-05T01:36:25;4.20;68.30
14585;DHT22;7379;51.506;11.876;2023-03-05T01:38:53;4.10;68.30
14585;DHT22;7379;51.506;11.876;2023-03-05T01:41:20;4.10;68.30
14585;DHT22;7379;51.506;11.876;2023-03-05T01:43:47;4.10;68.40
14585;DHT22;7379;51.506;11.876;2023-03-05T01:46:33;4.10;68.40
14585;DHT22;7379;51.506;11.876;2023-03-05T01:49:03;4.10;68.60
14585;DHT22;7379;51.506;11.876;2023-03-05T01:51:35;4.10;68.60
14585;DHT22;7379;51.506;11.876;2023-03-05T01:54:06;4.10;68.80
14585;DHT22;7379;51.506;11.876;2023-03-05T01:56:35;4.10;68.90
14585;DHT22;7379;51.506;11.876;2023-03-05T01:59:03;4.10;69.00
14585;DHT22;7379;51.506;11.876;2023-03-05T02:01:37;4.10;69.10
14585;DHT22;7379;51.506;11.876;2023-03-05T02:04:06;4.10;69.20
14585;DHT22;7379;51.506;11.876;2023-03-05T02:06:33;4.10;69.30
14585;DHT22;7379;51.506;11.876;2023-03-05T02:09:00;4.10;69.40
14585;DHT22;7379;51.506;11.876;2023-03-05T02:11:29;4.10;70.20
14585;DHT22;7379;51.506;11.876;2023-03-05T02:13:56;4.10;69.60
14585;DHT22;7379;51.506;11.876;2023-03-05T02:16:23;4.10;70.00
14585;DHT22;7379;51.506;11.876;2023-03-05T02:18:50;4.10;69.70
14585;DHT22;7379;51.506;11.876;2023-03-05T02:21:28;4.10;69.80
14585;DHT22;7379;51.506;11.876;2023-03-05T02:24:01;4.10;69.90
14585;DHT22;7379;51.506;11.876;2023-03-05T02:26:28;4.10;69.90
14585;DHT22;7379;51.506;11.876;2023-03-05T02:28:57;4.10;69.90
14585;DHT22;7379;51.506;11.876;2023-03-05T02:31:26;4.10;70.00
14585;DHT22;7379;51.506;11.876;2023-03-05T02:33:53;4.10;69.90
14585;DHT22;7379;51.506;11.876;2023-03-05T02:36:22;4.10;70.00
14585;DHT22;7379;51.506;11.876;2023-03-05T02:38:51;4.10;70.00
14585;DHT22;7379;51.506;11.876;2023-03-05T02:41:18;4.10;70.10
14585;DHT22;7379;51.506;11.876;2023-03-05T02:43:45;4.10;70.10
14585;DHT22;7379;51.506;11.876;2023-03-05T02:46:12;4.10;70.20
14585;DHT22;7379;51.506;11.876;2023-03-05T02:48:39;4.10;70.30
14585;DHT22;7379;51.506;11.876;2023-03-05T02:51:06;4.00;70.20
14585;DHT22;7379;51.506;11.876;2023-03-05T02:53:33;4.00;70.30
14585;DHT22;7379;51.506;11.876;2023-03-05T02:56:02;4.00;70.30
14585;DHT22;7379;51.506;11.876;2023-03-05T02:58:29;4.00;70.40
14585;DHT22;7379;51.506;11.876;2023-03-05T03:00:56;4.00;70.40
14585;DHT22;7379;51.506;11.876;2023-03-05T03:03:22;4.00;70.40
14585;DHT22;7379;51.506;11.876;2023-03-05T03:05:49;4.00;70.40
14585;DHT22;7379;51.506;11.876;2023-03-05T03:08:16;4.00;70.40
14585;DHT22;7379;51.506;11.876;2023-03-05T03:10:43;4.00;70.30
14585;DHT22;7379;51.506;11.876;2023-03-05T03:13:11;4.00;70.10
14585;DHT22;7379;51.506;11.876;2023-03-05T03:15:38;4.00;70.00
14585;DHT22;7379;51.506;11.876;2023-03-05T03:18:05;4.00;70.00
14585;DHT22;7379;51.506;11.876;2023-03-05T03:20:31;4.00;69.90
14585;DHT22;7379;51.506;11.876;2023-03-05T03:22:59;4.00;69.90
14585;DHT22;7379;51.506;11.876;2023-03-05T03:25:26;4.00;69.80
14585;DHT22;7379;51.506;11.876;2023-03-05T03:27:53;3.90;69.60
14585;DHT22;7379;51.506;11.876;2023-03-05T03:30:21;3.90;69.60
14585;DHT22;7379;51.506;11.876;2023-03-05T03:32:50;3.90;69.60
14585;DHT22;7379;51.506;11.876;2023-03-05T03:35:17;3.90;69.70
14585;DHT22;7379;51.506;11.876;2023-03-05T03:37:44;3.90;69.60
14585;DHT22;7379;51.506;11.876;2023-03-05T03:40:11;3.90;69.60
14585;DHT22;7379;51.506;11.876;2023-03-05T03:42:38;3.90;69.60
14585;DHT22;7379;51.506;11.876;2023-03-05T03:45:06;3.90;69.60
14585;DHT22;7379;51.506;11.876;2023-03-05T03:47:34;3.90;69.60
14585;DHT22;7379;51.506;11.876;2023-03-05T03:50:01;3.90;69.70
14585;DHT22;7379;51.506;11.876;2023-03-05T03:52:28;3.90;69.70
14585;DHT22;7379;51.506;11.876;2023-03-05T03:54:55;3.90;69.80
14585;DHT22;7379;51.506;11.876;2023-03-05T03:57:26;3.90;69.80
14585;DHT22;7379;51.506;11.876;2023-03-05T03:59:53;3.90;69.80
14585;DHT22;7379;51.506;11.876;2023-03-05T04:02:20;3.80;69.70
14585;DHT22;7379;51.506;11.876;2023-03-05T04:04:49;3.90;69.80
14585;DHT22;7379;51.506;11.876;2023-03-05T04:07:16;3.90;69.90
14585;DHT22;7379;51.506;11.876;2023-03-05T04:09:43;3.90;69.90
14585;DHT22;7379;51.506;11.876;2023-03-05T04:12:10;3.80;69.90
14585;DHT22;7379;51.506;11.876;2023-03-05T04:14:42;3.80;69.90
14585;DHT22;7379;51.506;11.876;2023-03-05T04:17:10;3.80;70.00
14585;DHT22;7379;51.506;11.876;2023-03-05T04:19:37;3.80;70.00
14585;DHT22;7379;51.506;11.876;2023-03-05T04:22:05;3.80;70.00
14585;DHT22;7379;51.506;11.876;2023-03-05T04:24:32;3.80;70.70
14585;DHT22;7379;51.506;11.876;2023-03-05T04:26:59;3.80;70.00
14585;DHT22;7379;51.506;11.876;2023-03-05T04:29:26;3.80;70.00
14585;DHT22;7379;51.506;11.876;2023-03-05T04:31:53;3.80;70.00
14585;DHT22;7379;51.506;11.876;2023-03-05T04:34:20;3.80;70.10
14585;DHT22;7379;51.506;11.876;2023-03-05T04:36:46;3.80;70.10
14585;DHT22;7379;51.506;11.876;2023-03-05T04:39:14;3.80;70.20
14585;DHT22;7379;51.506;11.876;2023-03-05T04:41:42;3.80;70.20
14585;DHT22;7379;51.506;11.876;2023-03-05T04:44:08;3.80;70.20
14585;DHT22;7379;51.506;11.876;2023-03-05T04:46:35;3.80;70.30
14585;DHT22;7379;51.506;11.876;2023-03-05T04:49:02;3.80;71.10
14585;DHT22;7379;51.506;11.876;2023-03-05T04:51:29;3.80;70.40
14585;DHT22;7379;51.506;11.876;2023-03-05T04:53:56;3.80;70.50
14585;DHT22;7379;51.506;11.876;2023-03-05T04:56:24;3.80;70.60
14585;DHT22;7379;51.506;11.876;2023-03-05T04:58:51;3.80;70.60
14585;DHT22;7379;51.506;11.876;2023-03-05T05:01:18;3.80;70.70
14585;DHT22;7379;51.506;11.876;2023-03-05T05:03:45;3.80;70.70
14585;DHT22;7379;51.506;11.876;2023-03-05T05:06:12;3.80;70.70
14585;DHT22;7379;51.506;11.876;2023-03-05T05:08:39;3.80;70.80
14585;DHT22;7379;51.506;11.876;2023-03-05T05:11:06;3.80;70.80
14585;DHT22;7379;51.506;11.876;2023-03-05T05:13:35;3.80;70.80
14585;DHT22;7379;51.506;11.876;2023-03-05T05:16:01;3.80;70.90
14585;DHT22;7379;51.506;11.876;2023-03-05T05:18:31;3.80;70.90
14585;DHT22;7379;51.506;11.876;2023-03-05T05:20:58;3.80;71.00
14585;DHT22;7379;51.506;11.876;2023-03-05T05:23:25;3.80;70.90
14585;DHT22;7379;51.506;11.876;2023-03-05T05:25:56;3.80;70.90
14585;DHT22;7379;51.506;11.876;2023-03-05T05:28:23;3.80;70.90
14585;DHT22;7379;51.506;11.876;2023-03-05T05:30:51;3.80;70.90
14585;DHT22;7379;51.506;11.876;2023-03-05T05:33:18;3.80;70.80
14585;DHT22;7379;51.506;11.876;2023-03-05T05:35:45;3.80;70.90
14585;DHT22;7379;51.506;11.876;2023-03-05T05:38:13;3.80;70.80
14585;DHT22;7379;51.506;11.876;2023-03-05T05:40:40;3.80;70.90
14585;DHT22;7379;51.506;11.876;2023-03-05T05:43:07;3.70;70.80
14585;DHT22;7379;51.506;11.876;2023-03-05T05:45:35;3.80;70.90
14585;DHT22;7379;51.506;11.876;2023-03-05T05:48:04;3.80;71.00
14585;DHT22;7379;51.506;11.876;2023-03-05T05:50:31;3.80;71.10
14585;DHT22;7379;51.506;11.876;2023-03-05T05:52:57;3.80;71.10
14585;DHT22;7379;51.506;11.876;2023-03-05T05:55:24;3.70;71.10
14585;DHT22;7379;51.506;11.876;2023-03-05T05:57:51;3.70;71.20
14585;DHT22;7379;51.506;11.876;2023-03-05T06:00:18;3.70;71.20
14585;DHT22;7379;51.506;11.876;2023-03-05T06:02:45;3.70;71.30
14585;DHT22;7379;51.506;11.876;2023-03-05T06:05:14;3.80;71.40
14585;DHT22;7379;51.506;11.876;2023-03-05T06:07:41;3.80;71.50
14585;DHT22;7379;51.506;11.876;2023-03-05T06:10:09;3.80;71.50
14585;DHT22;7379;51.506;11.876;2023-03-05T06:12:36;3.80;71.50
14585;DHT22;7379;51.506;11.876;2023-03-05T06:15:03;3.80;71.60
14585;DHT22;7379;51.506;11.876;2023-03-05T06:17:30;3.80;71.70
14585;DHT22;7379;51.506;11.876;2023-03-05T06:19:57;3.70;71.60
14585;DHT22;7379;51.506;11.876;2023-03-05T06:22:25;3.80;71.80
14585;DHT22;7379;51.506;11.876;2023-03-05T06:24:52;3.70;71.70
14585;DHT22;7379;51.506;11.876;2023-03-05T06:27:19;3.70;71.70
14585;DHT22;7379;51.506;11.876;2023-03-05T06:29:46;3.70;71.80
14585;DHT22;7379;51.506;11.876;2023-03-05T06:32:12;3.80;71.90
14585;DHT22;7379;51.506;11.876;2023-03-05T06:34:39;3.80;71.90
14585;DHT22;7379;51.506;11.876;2023-03-05T06:37:06;3.80;72.60
14585;DHT22;7379;51.506;11.876;2023-03-05T06:39:35;3.70;71.80
14585;DHT22;7379;51.506;11.876;2023-03-05T06:42:01;3.80;71.90
14585;DHT22;7379;51.506;11.876;2023-03-05T06:44:28;3.70;71.90
14585;DHT22;7379;51.506;11.876;2023-03-05T06:46:55;3.80;72.00
14585;DHT22;7379;51.506;11.876;2023-03-05T06:49:22;3.80;72.00
14585;DHT22;7379;51.506;11.876;2023-03-05T06:51:48;3.80;72.00
14585;DHT22;7379;51.506;11.876;2023-03-05T06:54:16;3.80;72.10
14585;DHT22;7379;51.506;11.876;2023-03-05T06:56:45;3.80;72.20
14585;DHT22;7379;51.506;11.876;2023-03-05T06:59:14;3.80;72.20
14585;DHT22;7379;51.506;11.876;2023-03-05T07:01:41;3.80;72.20
14585;DHT22;7379;51.506;11.876;2023-03-05T07:04:08;3.80;72.20
14585;DHT22;7379;51.506;11.876;2023-03-05T07:06:37;3.80;72.30
14585;DHT22;7379;51.506;11.876;2023-03-05T07:09:05;3.80;72.30
14585;DHT22;7379;51.506;11.876;2023-03-05T07:11:32;3.80;72.30
14585;DHT22;7379;51.506;11.876;2023-03-05T07:14:01;3.80;72.40
14585;DHT22;7379;51.506;11.876;2023-03-05T07:16:30;3.80;72.50
14585;DHT22;7379;51.506;11.876;2023-03-05T07:18:58;3.80;72.60
14585;DHT22;7379;51.506;11.876;2023-03-05T07:21:28;3.80;72.60
14585;DHT22;7379;51.506;11.876;2023-03-05T07:23:58;3.80;72.70
14585;DHT22;7379;51.506;11.876;2023-03-05T07:26:26;3.80;72.70
14585;DHT22;7379;51.506;11.876;2023-03-05T07:28:54;3.70;72.70
14585;DHT22;7379;51.506;11.876;2023-03-05T07:31:23;3.80;72.80
14585;DHT22;7379;51.506;11.876;2023-03-05T07:33:52;3.80;72.80
14585;DHT22;7379;51.506;11.876;2023-03-05T07:36:19;3.80;72.80
14585;DHT22;7379;51.506;11.876;2023-03-05T07:38:45;3.80;72.90
14585;DHT22;7379;51.506;11.876;2023-03-05T07:41:14;3.80;72.90
14585;DHT22;7379;51.506;11.876;2023-03-05T07:43:44;3.80;72.90
14585;DHT22;7379;51.506;11.876;2023-03-05T07:46:13;3.80;72.90
14585;DHT22;7379;51.506;11.876;2023-03-05T07:48:42;3.80;73.00
14585;DHT22;7379;51.506;11.876;2023-03-05T07:51:12;3.80;73.00
14585;DHT22;7379;51.506;11.876;2023-03-05T07:53:40;3.80;73.10
14585;DHT22;7379;51.506;11.876;2023-03-05T07:56:07;3.80;73.10
14585;DHT22;7379;51.506;11.876;2023-03-05T07:58:35;3.80;73.80
14585;DHT22;7379;51.506;11.876;2023-03-05T08:01:02;3.80;73.20
14585;DHT22;7379;51.506;11.876;2023-03-05T08:03:29;3.80;73.30
14585;DHT22;7379;51.506;11.876;2023-03-05T08:05:57;3.80;73.30
14585;DHT22;7379;51.506;11.876;2023-03-05T08:08:24;3.80;73.40
14585;DHT22;7379;51.506;11.876;2023-03-05T08:10:51;3.80;73.40
14585;DHT22;7379;51.506;11.876;2023-03-05T08:13:18;3.80;73.50
14585;DHT22;7379;51.506;11.876;2023-03-05T08:15:44;3.80;73.50
14585;DHT22;7379;51.506;11.876;2023-03-05T08:18:11;3.80;73.50
14585;DHT22;7379;51.506;11.876;2023-03-05T08:20:40;3.90;73.60
14585;DHT22;7379;51.506;11.876;2023-03-05T08:23:08;3.90;73.50
14585;DHT22;7379;51.506;11.876;2023-03-05T08:25:34;3.90;73.50
14585;DHT22;7379;51.506;11.876;2023-03-05T08:28:03;3.90;73.50
14585;DHT22;7379;51.506;11.876;2023-03-05T08:30:30;3.90;73.40
14585;DHT22;7379;51.506;11.876;2023-03-05T08:32:56;3.90;73.40
14585;DHT22;7379;51.506;11.876;2023-03-05T08:35:23;4.00;73.40
14585;DHT22;7379;51.506;11.876;2023-03-05T08:37:50;4.00;73.30
14585;DHT22;7379;51.506;11.876;2023-03-05T08:40:18;4.00;74.00
14585;DHT22;7379;51.506;11.876;2023-03-05T08:42:45;4.00;73.50
14585;DHT22;7379;51.506;11.876;2023-03-05T08:45:12;4.00;73.00
14585;DHT22;7379;51.506;11.876;2023-03-05T08:47:39;4.00;72.90
14585;DHT22;7379;51.506;11.876;2023-03-05T08:50:07;4.00;72.70
14585;DHT22;7379;51.506;11.876;2023-03-05T08:52:34;4.00;72.70
14585;DHT22;7379;51.506;11.876;2023-03-05T08:55:01;4.00;72.60
14585;DHT22;7379;51.506;11.876;2023-03-05T08:57:29;4.00;72.70
14585;DHT22;7379;51.506;11.876;2023-03-05T08:59:56;4.00;72.60
14585;DHT22;7379;51.506;11.876;2023-03-05T09:02:23;4.00;72.40
14585;DHT22;7379;51.506;11.876;2023-03-05T09:04:50;4.00;73.20
14585;DHT22;7379;51.506;11.876;2023-03-05T09:07:16;4.00;73.20
14585;DHT22;7379;51.506;11.876;2023-03-05T09:09:43;4.00;72.50
14585;DHT22;7379;51.506;11.876;2023-03-05T09:12:11;4.00;72.40
14585;DHT22;7379;51.506;11.876;2023-03-05T09:14:39;4.00;72.40
14585;DHT22;7379;51.506;11.876;2023-03-05T09:17:06;4.10;73.20
14585;DHT22;7379;51.506;11.876;2023-03-05T09:19:33;4.10;72.20
14585;DHT22;7379;51.506;11.876;2023-03-05T09:22:00;4.10;72.20
14585;DHT22;7379;51.506;11.876;2023-03-05T09:24:27;4.10;72.20
14585;DHT22;7379;51.506;11.876;2023-03-05T09:26:57;4.10;72.20
14585;DHT22;7379;51.506;11.876;2023-03-05T09:29:24;4.10;72.40
14585;DHT22;7379;51.506;11.876;2023-03-05T09:31:53;4.10;73.20
14585;DHT22;7379;51.506;11.876;2023-03-05T09:34:20;4.10;73.20
14585;DHT22;7379;51.506;11.876;2023-03-05T09:36:47;4.00;73.30
14585;DHT22;7379;51.506;11.876;2023-03-05T09:39:14;4.00;73.80
14585;DHT22;7379;51.506;11.876;2023-03-05T09:41:59;4.00;74.60
14585;DHT22;7379;51.506;11.876;2023-03-05T09:44:36;4.00;74.70
14585;DHT22;7379;51.506;11.876;2023-03-05T09:47:18;4.00;74.70
14585;DHT22;7379;51.506;11.876;2023-03-05T09:49:52;4.10;74.70
14585;DHT22;7379;51.506;11.876;2023-03-05T09:52:30;4.10;74.60
14585;DHT22;7379;51.506;11.876;2023-03-05T09:55:02;4.10;74.50
14585;DHT22;7379;51.506;11.876;2023-03-05T09:57:38;4.10;74.40
14585;DHT22;7379;51.506;11.876;2023-03-05T10:00:10;4.10;74.30
14585;DHT22;7379;51.506;11.876;2023-03-05T10:02:47;4.10;74.20
14585;DHT22;7379;51.506;11.876;2023-03-05T10:05:19;4.10;74.20
14585;DHT22;7379;51.506;11.876;2023-03-05T10:07:52;4.20;74.30
14585;DHT22;7379;51.506;11.876;2023-03-05T10:10:25;4.10;74.20
14585;DHT22;7379;51.506;11.876;2023-03-05T10:12:55;4.20;74.40
14585;DHT22;7379;51.506;11.876;2023-03-05T10:15:27;4.20;74.30
14585;DHT22;7379;51.506;11.876;2023-03-05T10:18:12;4.20;74.20
14585;DHT22;7379;51.506;11.876;2023-03-05T10:20:50;4.20;74.20
14585;DHT22;7379;51.506;11.876;2023-03-05T10:23:33;4.20;74.20
14585;DHT22;7379;51.506;11.876;2023-03-05T10:26:07;4.20;74.20
14585;DHT22;7379;51.506;11.876;2023-03-05T10:28:43;4.20;74.20
14585;DHT22;7379;51.506;11.876;2023-03-05T10:31:26;4.20;74.10
14585;DHT22;7379;51.506;11.876;2023-03-05T10:34:11;4.20;74.10
14585;DHT22;7379;51.506;11.876;2023-03-05T10:36:50;4.20;74.10
14585;DHT22;7379;51.506;11.876;2023-03-05T10:39:41;4.20;74.20
14585;DHT22;7379;51.506;11.876;2023-03-05T10:42:22;4.20;74.30
14585;DHT22;7379;51.506;11.876;2023-03-05T10:44:52;4.20;74.20
14585;DHT22;7379;51.506;11.876;2023-03-05T10:47:23;4.30;74.20
14585;DHT22;7379;51.506;11.876;2023-03-05T10:49:53;4.30;74.00
14585;DHT22;7379;51.506;11.876;2023-03-05T10:52:26;4.30;73.90
14585;DHT22;7379;51.506;11.876;2023-03-05T10:54:54;4.30;73.80
14585;DHT22;7379;51.506;11.876;2023-03-05T10:57:22;4.30;74.60
14585;DHT22;7379;51.506;11.876;2023-03-05T10:59:51;4.30;73.90
14585;DHT22;7379;51.506;11.876;2023-03-05T11:02:19;4.30;73.90
14585;DHT22;7379;51.506;11.876;2023-03-05T11:04:46;4.30;73.90
14585;DHT22;7379;51.506;11.876;2023-03-05T11:10:17;4.30;73.90
14585;DHT22;7379;51.506;11.876;2023-03-05T11:12:46;4.30;73.80
14585;DHT22;7379;51.506;11.876;2023-03-05T11:15:28;4.40;73.90
14585;DHT22;7379;51.506;11.876;2023-03-05T11:18:16;4.40;73.90
14585;DHT22;7379;51.506;11.876;2023-03-05T11:20:45;4.40;73.90
14585;DHT22;7379;51.506;11.876;2023-03-05T11:23:14;4.40;74.00
14585;DHT22;7379;51.506;11.876;2023-03-05T11:25:58;4.40;74.00
14585;DHT22;7379;51.506;11.876;2023-03-05T11:28:28;4.40;74.10
14585;DHT22;7379;51.506;11.876;2023-03-05T11:30:59;4.40;74.10
14585;DHT22;7379;51.506;11.876;2023-03-05T11:33:26;4.40;74.10
14585;DHT22;7379;51.506;11.876;2023-03-05T11:36:10;4.40;74.10
14585;DHT22;7379;51.506;11.876;2023-03-05T11:38:44;4.40;74.10
14585;DHT22;7379;51.506;11.876;2023-03-05T11:41:13;4.40;74.00
14585;DHT22;7379;51.506;11.876;2023-03-05T11:43:42;4.40;74.00
14585;DHT22;7379;51.506;11.876;2023-03-05T11:46:10;4.40;74.00
14585;DHT22;7379;51.506;11.876;2023-03-05T11:48:39;4.40;74.00
14585;DHT22;7379;51.506;11.876;2023-03-05T11:51:12;4.50;74.10
14585;DHT22;7379;51.506;11.876;2023-03-05T11:53:42;4.40;74.10
14585;DHT22;7379;51.506;11.876;2023-03-05T11:56:18;4.50;74.10
14585;DHT22;7379;51.506;11.876;2023-03-05T11:58:50;4.50;73.90
14585;DHT22;7379;51.506;11.876;2023-03-05T12:01:20;4.40;73.90
14585;DHT22;7379;51.506;11.876;2023-03-05T12:03:48;4.40;73.80
14585;DHT22;7379;51.506;11.876;2023-03-05T12:06:19;4.40;73.80
14585;DHT22;7379;51.506;11.876;2023-03-05T12:08:51;4.40;73.80
14585;DHT22;7379;51.506;11.876;2023-03-05T12:11:23;4.40;73.90
14585;DHT22;7379;51.506;11.876;2023-03-05T12:13:54;4.40;74.00
14585;DHT22;7379;51.506;11.876;2023-03-05T12:16:27;4.40;73.90
14585;DHT22;7379;51.506;11.876;2023-03-05T12:19:07;4.40;73.80
14585;DHT22;7379;51.506;11.876;2023-03-05T12:21:38;4.40;73.80
14585;DHT22;7379;51.506;11.876;2023-03-05T12:24:36;4.40;73.50
14585;DHT22;7379;51.506;11.876;2023-03-05T12:27:11;4.50;73.10
14585;DHT22;7379;51.506;11.876;2023-03-05T12:29:49;4.50;72.70
14585;DHT22;7379;51.506;11.876;2023-03-05T12:35:26;4.60;72.60
14585;DHT22;7379;51.506;11.876;2023-03-05T12:38:13;4.60;72.10
14585;DHT22;7379;51.506;11.876;2023-03-05T12:40:42;4.70;71.60
14585;DHT22;7379;51.506;11.876;2023-03-05T12:43:29;4.60;71.30
14585;DHT22;7379;51.506;11.876;2023-03-05T12:46:23;4.70;71.30
14585;DHT22;7379;51.506;11.876;2023-03-05T12:48:51;4.60;71.20
14585;DHT22;7379;51.506;11.876;2023-03-05T12:51:32;4.70;71.10
14585;DHT22;7379;51.506;11.876;2023-03-05T12:54:29;4.70;70.70
14585;DHT22;7379;51.506;11.876;2023-03-05T12:56:58;4.70;70.60
14585;DHT22;7379;51.506;11.876;2023-03-05T12:59:35;4.70;70.50
14585;DHT22;7379;51.506;11.876;2023-03-05T13:02:15;4.70;70.20
14585;DHT22;7379;51.506;11.876;2023-03-05T13:04:45;4.70;70.20
14585;DHT22;7379;51.506;11.876;2023-03-05T13:07:14;4.70;70.10
14585;DHT22;7379;51.506;11.876;2023-03-05T13:09:50;4.70;70.00
14585;DHT22;7379;51.506;11.876;2023-03-05T13:12:18;4.70;70.50
14585;DHT22;7379;51.506;11.876;2023-03-05T13:14:47;4.70;69.60
14585;DHT22;7379;51.506;11.876;2023-03-05T13:17:35;4.70;69.70
14585;DHT22;7379;51.506;11.876;2023-03-05T13:20:24;4.60;69.80
14585;DHT22;7379;51.506;11.876;2023-03-05T13:23:15;4.70;69.70
14585;DHT22;7379;51.506;11.876;2023-03-05T13:25:43;4.70;69.60
14585;DHT22;7379;51.506;11.876;2023-03-05T13:28:13;4.70;69.60
14585;DHT22;7379;51.506;11.876;2023-03-05T13:30:44;4.60;70.40
14585;DHT22;7379;51.506;11.876;2023-03-05T13:33:19;4.70;69.70
14585;DHT22;7379;51.506;11.876;2023-03-05T13:35:47;4.70;69.40
14585;DHT22;7379;51.506;11.876;2023-03-05T13:38:25;4.70;69.40
14585;DHT22;7379;51.506;11.876;2023-03-05T13:41:01;4.70;69.50
14585;DHT22;7379;51.506;11.876;2023-03-05T13:43:28;4.70;69.30
14585;DHT22;7379;51.506;11.876;2023-03-05T13:45:57;4.70;69.20
14585;DHT22;7379;51.506;11.876;2023-03-05T13:48:25;4.80;69.10
14585;DHT22;7379;51.506;11.876;2023-03-05T13:50:54;4.70;68.70
14585;DHT22;7379;51.506;11.876;2023-03-05T13:53:22;4.70;68.60
14585;DHT22;7379;51.506;11.876;2023-03-05T13:55:51;4.80;68.60
14585;DHT22;7379;51.506;11.876;2023-03-05T13:58:41;4.70;68.40
14585;DHT22;7379;51.506;11.876;2023-03-05T14:01:17;4.80;68.60
14585;DHT22;7379;51.506;11.876;2023-03-05T14:03:48;4.80;68.60
14585;DHT22;7379;51.506;11.876;2023-03-05T14:06:18;4.80;68.50
14585;DHT22;7379;51.506;11.876;2023-03-05T14:08:50;4.80;68.40
14585;DHT22;7379;51.506;11.876;2023-03-05T14:11:18;4.80;68.40
14585;DHT22;7379;51.506;11.876;2023-03-05T14:13:45;4.80;68.40
14585;DHT22;7379;51.506;11.876;2023-03-05T14:16:21;4.70;68.20
14585;DHT22;7379;51.506;11.876;2023-03-05T14:18:53;4.80;68.10
14585;DHT22;7379;51.506;11.876;2023-03-05T14:21:20;4.80;68.00
14585;DHT22;7379;51.506;11.876;2023-03-05T14:23:48;4.80;68.00
14585;DHT22;7379;51.506;11.876;2023-03-05T14:26:25;4.70;67.90
14585;DHT22;7379;51.506;11.876;2023-03-05T14:28:54;4.80;68.00
14585;DHT22;7379;51.506;11.876;2023-03-05T14:31:23;4.70;68.00
14585;DHT22;7379;51.506;11.876;2023-03-05T14:33:52;4.70;68.00
14585;DHT22;7379;51.506;11.876;2023-03-05T14:36:22;4.70;67.90
14585;DHT22;7379;51.506;11.876;2023-03-05T14:38:51;4.70;67.80
14585;DHT22;7379;51.506;11.876;2023-03-05T14:41:20;4.70;67.90
14585;DHT22;7379;51.506;11.876;2023-03-05T14:43:48;4.70;68.10
14585;DHT22;7379;51.506;11.876;2023-03-05T14:46:14;4.70;68.30
14585;DHT22;7379;51.506;11.876;2023-03-05T14:48:43;4.70;68.40
14585;DHT22;7379;51.506;11.876;2023-03-05T14:51:10;4.70;68.70
14585;DHT22;7379;51.506;11.876;2023-03-05T14:53:41;4.70;68.90
14585;DHT22;7379;51.506;11.876;2023-03-05T14:56:16;4.70;69.10
14585;DHT22;7379;51.506;11.876;2023-03-05T14:58:44;4.70;69.20
14585;DHT22;7379;51.506;11.876;2023-03-05T15:01:11;4.70;69.30
14585;DHT22;7379;51.506;11.876;2023-03-05T15:03:38;4.70;69.30
14585;DHT22;7379;51.506;11.876;2023-03-05T15:06:14;4.70;69.40
14585;DHT22;7379;51.506;11.876;2023-03-05T15:08:43;4.80;69.40
14585;DHT22;7379;51.506;11.876;2023-03-05T15:11:10;4.80;69.30
14585;DHT22;7379;51.506;11.876;2023-03-05T15:13:37;4.70;69.20
14585;DHT22;7379;51.506;11.876;2023-03-05T15:16:05;4.80;69.20
14585;DHT22;7379;51.506;11.876;2023-03-05T15:18:33;4.80;69.20
14585;DHT22;7379;51.506;11.876;2023-03-05T15:21:00;4.80;69.20
14585;DHT22;7379;51.506;11.876;2023-03-05T15:23:29;4.70;68.90
14585;DHT22;7379;51.506;11.876;2023-03-05T15:26:01;4.80;68.80
14585;DHT22;7379;51.506;11.876;2023-03-05T15:28:31;4.80;68.80
14585;DHT22;7379;51.506;11.876;2023-03-05T15:30:59;4.70;69.00
14585;DHT22;7379;51.506;11.876;2023-03-05T15:33:26;4.80;69.20
14585;DHT22;7379;51.506;11.876;2023-03-05T15:35:53;4.80;69.20
14585;DHT22;7379;51.506;11.876;2023-03-05T15:38:20;4.80;69.20
14585;DHT22;7379;51.506;11.876;2023-03-05T15:40:48;4.80;69.20
14585;DHT22;7379;51.506;11.876;2023-03-05T15:43:16;4.80;69.20
14585;DHT22;7379;51.506;11.876;2023-03-05T15:45:43;4.70;69.20
14585;DHT22;7379;51.506;11.876;2023-03-05T15:48:10;4.80;69.20
14585;DHT22;7379;51.506;11.876;2023-03-05T15:50:39;4.80;69.30
14585;DHT22;7379;51.506;11.876;2023-03-05T15:53:07;4.80;69.30
14585;DHT22;7379;51.506;11.876;2023-03-05T15:55:37;4.80;69.30
14585;DHT22;7379;51.506;11.876;2023-03-05T15:58:06;4.80;69.40
14585;DHT22;7379;51.506;11.876;2023-03-05T16:00:35;4.80;69.40
14585;DHT22;7379;51.506;11.876;2023-03-05T16:03:02;4.80;69.50
14585;DHT22;7379;51.506;11.876;2023-03-05T16:05:29;4.70;69.40